»·PEaware :: AAY542 KIWA-KGJT

AAY542 :: KIWA-KGJT

FLIGHT INFORMATION

Flight Status: Arrived
Operator:
Allegiant Air
More flights by this operator :: More flights under this callsign
Pilot: Chandler S. (807)
Aircraft: AIRBUS A320
(A320)
More flights by this aircraft type
Origin: KIWA Williams Gateway
United States
Destination: KGJT Grand Junction Regl
United States
More flights between these airports :: More routes between these airports
Route: YOTES6 YOOPR JNC
File this flight plan on PilotEdge
Remarks:
Altitude:
(Current/Filed)
29,000ft
Speed:
(Current/Filed)
400kts
Departed: 06-Jul-20 08:49 AM
Arrived: 06-Jul-20 09:52 AM
Distance/Time
Traveled:
380nm/1:03
Distance/Time
To Go:
Arrived

Flight Plot

Page will automatically refresh every two minutes.

Flight plan parsing failed; only flown route is shown


Map Options




Map Legend


Flown Route
Filed Route
Departure Airport
Arrival Airport
Navaid (VOR, NDB)
Fix

Horizontal Profiles

Position Reports

Time Latitude Longitude Heading Altitude Ground
Speed
06-Jul-20 08:32 33.306341 -111.668218 270 1388ft 0kts
06-Jul-20 08:33 33.306341 -111.668218 270 1388ft 0kts
06-Jul-20 08:34 33.306341 -111.668218 270 1388ft 0kts
06-Jul-20 08:35 33.306341 -111.668218 270 1388ft 0kts
06-Jul-20 08:36 33.306341 -111.668218 270 1388ft 0kts
06-Jul-20 08:37 33.306341 -111.668218 270 1388ft 0kts
06-Jul-20 08:38 33.306341 -111.668218 270 1388ft 0kts
06-Jul-20 08:39 33.306341 -111.668218 270 1388ft 0kts
06-Jul-20 08:40 33.306341 -111.668218 270 1388ft 0kts
06-Jul-20 08:41 33.306356 -111.668093 257 1388ft 2kts
06-Jul-20 08:42 33.306197 -111.667476 352 1388ft 1kts
06-Jul-20 08:43 33.306105 -111.667477 1 1388ft 0kts
06-Jul-20 08:44 33.306315 -111.667469 1 1388ft 7kts
06-Jul-20 08:45 33.311270 -111.667519 330 1388ft 21kts
06-Jul-20 08:46 33.315805 -111.672714 313 1388ft 23kts
06-Jul-20 08:47 33.317011 -111.673593 36 1388ft 0kts
06-Jul-20 08:48 33.310368 -111.664335 136 1388ft 152kts
06-Jul-20 08:49 33.273469 -111.620558 134 4284ft 226kts
06-Jul-20 08:50 33.223618 -111.557728 134 7286ft 279kts
06-Jul-20 08:51 33.171564 -111.489841 134 10369ft 270kts
06-Jul-20 08:52 33.121204 -111.422226 134 13510ft 283kts
06-Jul-20 08:53 33.067870 -111.351133 134 16647ft 291kts
06-Jul-20 08:54 33.014738 -111.277425 111 19745ft 296kts
06-Jul-20 08:55 33.047174 -111.198245 10 22016ft 305kts
06-Jul-20 08:56 33.129034 -111.221830 336 24224ft 313kts
06-Jul-20 08:57 33.211597 -111.257581 336 26413ft 319kts
06-Jul-20 08:58 33.295063 -111.293515 336 28529ft 321kts
06-Jul-20 08:59 33.384302 -111.331977 337 29023ft 370kts
06-Jul-20 09:00 33.492537 -111.340260 16 29009ft 434kts
06-Jul-20 09:01 33.612120 -111.290929 16 28999ft 474kts
06-Jul-20 09:02 33.737628 -111.239671 16 29096ft 478kts
06-Jul-20 09:03 33.863271 -111.188216 16 29207ft 479kts
06-Jul-20 09:04 33.989832 -111.136208 16 29229ft 482kts
06-Jul-20 09:05 34.116982 -111.083797 16 29228ft 484kts
06-Jul-20 09:06 34.244501 -111.031064 17 29228ft 484kts
06-Jul-20 09:07 34.372035 -110.978154 17 29227ft 484kts
06-Jul-20 09:08 34.498845 -110.925374 17 29217ft 483kts
06-Jul-20 09:09 34.625775 -110.872374 17 29204ft 482kts
06-Jul-20 09:10 34.751790 -110.819585 17 29204ft 480kts
06-Jul-20 09:11 34.878078 -110.766509 17 29204ft 480kts
06-Jul-20 09:12 35.004391 -110.713249 16 29203ft 480kts
06-Jul-20 09:13 35.131062 -110.659663 16 29205ft 483kts
06-Jul-20 09:14 35.258216 -110.605696 16 29205ft 484kts
06-Jul-20 09:15 35.385634 -110.551437 16 29195ft 485kts
06-Jul-20 09:16 35.513378 -110.496855 16 29198ft 486kts
06-Jul-20 09:17 35.640504 -110.442355 16 29198ft 487kts
06-Jul-20 09:18 35.767343 -110.384298 17 29198ft 487kts
06-Jul-20 09:19 35.893371 -110.326041 18 29197ft 488kts
06-Jul-20 09:20 36.020007 -110.267305 18 29200ft 487kts
06-Jul-20 09:21 36.147041 -110.208180 18 29261ft 486kts
06-Jul-20 09:22 36.273594 -110.149072 18 29287ft 486kts
06-Jul-20 09:23 36.399954 -110.089849 18 29289ft 487kts
06-Jul-20 09:24 36.526304 -110.030425 18 29293ft 487kts
06-Jul-20 09:25 36.653014 -109.970624 18 29293ft 487kts
06-Jul-20 09:26 36.779735 -109.910605 18 29293ft 487kts
06-Jul-20 09:27 36.906450 -109.850378 18 29293ft 487kts
06-Jul-20 09:28 37.032643 -109.790183 18 29291ft 488kts
06-Jul-20 09:29 37.160801 -109.728829 17 29293ft 492kts
06-Jul-20 09:30 37.289257 -109.667107 17 29294ft 495kts
06-Jul-20 09:31 37.417887 -109.605078 17 29293ft 497kts
06-Jul-20 09:32 37.546923 -109.542623 17 29293ft 498kts
06-Jul-20 09:33 37.675924 -109.479954 17 29293ft 498kts
06-Jul-20 09:34 37.805270 -109.416878 17 28545ft 492kts
06-Jul-20 09:35 37.930802 -109.355459 17 26996ft 478kts
06-Jul-20 09:36 38.052430 -109.295711 18 25571ft 465kts
06-Jul-20 09:37 38.172118 -109.236695 18 24050ft 456kts
06-Jul-20 09:38 38.289457 -109.178644 19 22469ft 450kts
06-Jul-20 09:39 38.405501 -109.121032 19 20780ft 446kts
06-Jul-20 09:40 38.518155 -109.064933 20 19047ft 426kts
06-Jul-20 09:41 38.625848 -109.011124 21 17268ft 405kts
06-Jul-20 09:42 38.727725 -108.960065 21 15441ft 383kts
06-Jul-20 09:44 38.822971 -108.912191 21 13542ft 356kts
06-Jul-20 09:45 38.911110 -108.867747 21 12016ft 324kts
06-Jul-20 09:46 38.989896 -108.827936 21 11296ft 304kts
06-Jul-20 09:47 39.067148 -108.782244 30 9945ft 296kts
06-Jul-20 09:48 39.135842 -108.726649 33 8336ft 272kts
06-Jul-20 09:49 39.172341 -108.661726 89 7475ft 210kts
06-Jul-20 09:50 39.159288 -108.591362 118 5862ft 185kts
06-Jul-20 09:51 39.133766 -108.542160 124 4884ft 151kts
06-Jul-20 09:52 39.123547 -108.525420 215 4864ft 9kts
06-Jul-20 09:53 39.123101 -108.528342 250 4864ft 0kts
06-Jul-20 09:54 39.123118 -108.528277 250 4864ft 0kts
06-Jul-20 09:55 39.123118 -108.528277 250 4864ft 0kts
06-Jul-20 09:56 39.123118 -108.528277 250 4864ft 0kts

Navigation Log

Ident Type
Flight plan parsing failed, navigation log unavailable